Time;durP1;ratioP1;P1;durP2;ratioP2;P2;SDS_P1;SDS_P2;PMS_P1;PMS_P2;Temp;Humidity;BMP_temperature;BMP_pressure;BME280_temperature;BME280_humidity;BME280_pressure;Samples;Min_cycle;Max_cycle;Signal;HPM_P1;HPM_P2
2023/09/13 00:02:16;;;;;;;2.05;1.00;;;17.00;99.90;;;;;;4967512;28;20105;-71
2023/09/13 00:04:41;;;;;;;1.48;0.75;;;17.00;99.90;;;;;;4964916;28;20065;-71
2023/09/13 00:07:07;;;;;;;0.88;0.65;;;17.00;99.90;;;;;;4970238;28;20042;-71
2023/09/13 00:09:33;;;;;;;0.85;0.50;;;16.90;99.90;;;;;;4966732;28;20823;-71
2023/09/13 00:11:58;;;;;;;1.05;0.50;;;16.90;99.90;;;;;;4963042;28;20888;-71
2023/09/13 00:14:24;;;;;;;1.00;0.40;;;16.90;99.90;;;;;;4962598;28;20038;-71
2023/09/13 00:16:50;;;;;;;0.60;0.50;;;16.80;99.90;;;;;;4966496;28;20041;-71
2023/09/13 00:19:16;;;;;;;1.20;0.50;;;16.80;99.90;;;;;;4965323;28;20046;-71
2023/09/13 00:21:42;;;;;;;0.90;0.30;;;16.80;99.90;;;;;;4965610;28;20066;-71
2023/09/13 00:24:09;;;;;;;0.63;0.30;;;16.80;99.90;;;;;;4970961;28;20030;-71
2023/09/13 00:26:35;;;;;;;0.50;0.30;;;16.70;99.90;;;;;;4985442;28;20121;-71
2023/09/13 00:29:01;;;;;;;0.70;0.40;;;16.70;99.90;;;;;;4968209;28;20129;-71
2023/09/13 00:31:26;;;;;;;0.10;0.10;;;16.60;99.90;;;;;;4966488;28;20039;-71
2023/09/13 00:33:52;;;;;;;0.98;0.35;;;16.60;99.90;;;;;;4966531;28;20408;-71
2023/09/13 00:36:17;;;;;;;0.73;0.30;;;16.60;99.90;;;;;;4965040;28;20050;-71
2023/09/13 00:38:43;;;;;;;0.40;0.20;;;16.60;99.90;;;;;;4965373;28;20062;-71
2023/09/13 00:41:09;;;;;;;0.57;0.20;;;16.60;99.90;;;;;;4971320;28;20030;-71
2023/09/13 00:43:35;;;;;;;2.35;0.30;;;16.60;99.90;;;;;;4963992;28;20077;-71
2023/09/13 00:46:01;;;;;;;0.60;0.20;;;16.50;99.90;;;;;;4964565;28;20030;-71
2023/09/13 00:48:29;;;;;;;0.30;0.20;;;16.50;99.90;;;;;;4964081;28;20653;-71
2023/09/13 00:50:56;;;;;;;1.30;0.43;;;16.50;99.90;;;;;;4963615;28;20064;-71
2023/09/13 00:53:23;;;;;;;1.13;0.25;;;16.50;99.90;;;;;;4963868;28;20056;-71
2023/09/13 00:55:51;;;;;;;2.22;0.40;;;16.50;99.90;;;;;;4964969;28;20580;-71
2023/09/13 00:58:18;;;;;;;0.73;0.30;;;16.50;99.90;;;;;;4968765;28;20062;-71
2023/09/13 01:00:45;;;;;;;0.93;0.30;;;16.40;99.90;;;;;;4964778;28;20037;-71
2023/09/13 01:03:12;;;;;;;0.63;0.30;;;16.40;99.90;;;;;;4963849;28;20074;-71
2023/09/13 01:05:38;;;;;;;1.23;0.30;;;16.40;99.90;;;;;;4962946;28;20034;-70
2023/09/13 01:08:04;;;;;;;0.68;0.30;;;16.40;99.90;;;;;;4963621;28;20038;-71
2023/09/13 01:10:30;;;;;;;0.80;0.32;;;16.40;99.90;;;;;;4961022;28;20035;-71
2023/09/13 01:12:55;;;;;;;1.00;0.32;;;16.30;99.90;;;;;;4964895;28;20043;-70
2023/09/13 01:15:23;;;;;;;0.47;0.22;;;16.30;99.90;;;;;;4968924;28;20058;-70
2023/09/13 01:18:01;;;;;;;0.70;0.30;;;16.20;99.90;;;;;;4964703;28;20034;-70
2023/09/13 01:20:53;;;;;;;1.33;0.43;;;16.10;99.90;;;;;;4961832;28;20046;-71
2023/09/13 01:23:53;;;;;;;0.68;0.30;;;16.10;99.90;;;;;;4965356;28;20035;-71
2023/09/13 01:26:31;;;;;;;0.80;0.30;;;16.10;99.90;;;;;;4964256;28;20042;-71
2023/09/13 01:28:59;;;;;;;0.65;0.30;;;16.10;99.90;;;;;;4949236;28;20117;-71
2023/09/13 01:31:27;;;;;;;0.35;0.30;;;16.00;99.90;;;;;;4968105;28;20042;-71
2023/09/13 01:33:53;;;;;;;2.58;0.32;;;16.00;99.90;;;;;;4964026;28;20052;-71
2023/09/13 01:36:19;;;;;;;1.13;0.30;;;16.10;99.90;;;;;;4960312;28;20023;-71
2023/09/13 01:38:45;;;;;;;2.35;0.40;;;16.00;99.90;;;;;;4964808;28;20381;-70
2023/09/13 01:41:17;;;;;;;0.57;0.30;;;16.00;99.90;;;;;;4963555;28;20118;-71
2023/09/13 01:43:43;;;;;;;0.60;0.20;;;16.00;99.90;;;;;;4945367;28;20035;-71
2023/09/13 01:46:11;;;;;;;0.40;0.28;;;16.00;99.90;;;;;;4960946;28;20035;-70
2023/09/13 01:48:38;;;;;;;0.75;0.28;;;16.00;99.90;;;;;;4960189;28;20120;-70
2023/09/13 01:51:04;;;;;;;0.70;0.30;;;16.00;99.90;;;;;;4951639;28;20051;-70
2023/09/13 01:53:30;;;;;;;0.30;0.10;;;16.00;99.90;;;;;;4971504;28;20159;-71
2023/09/13 01:55:56;;;;;;;2.83;0.30;;;16.00;99.90;;;;;;4960013;28;20058;-72
2023/09/13 01:58:21;;;;;;;1.20;0.30;;;16.00;99.90;;;;;;4960401;28;20031;-70
2023/09/13 02:00:47;;;;;;;0.20;0.20;;;16.00;99.90;;;;;;4950112;28;20038;-71
2023/09/13 02:03:13;;;;;;;0.98;0.30;;;16.00;99.90;;;;;;4964674;28;20039;-71
2023/09/13 02:05:39;;;;;;;0.20;0.20;;;16.00;99.90;;;;;;4957879;28;20039;-71
2023/09/13 02:08:05;;;;;;;0.40;0.20;;;16.00;99.90;;;;;;4976874;28;20997;-70
2023/09/13 02:10:30;;;;;;;1.20;0.40;;;16.00;99.90;;;;;;4955263;28;20042;-71
2023/09/13 02:12:59;;;;;;;1.08;0.40;;;16.00;99.90;;;;;;4973925;28;20139;-71
2023/09/13 02:15:27;;;;;;;1.33;0.30;;;16.00;99.90;;;;;;4960363;28;20034;-71
2023/09/13 02:17:52;;;;;;;1.13;0.50;;;16.00;99.90;;;;;;4962637;28;20035;-71
2023/09/13 02:20:18;;;;;;;1.75;0.32;;;16.00;99.90;;;;;;4957632;28;20075;-70
2023/09/13 02:22:43;;;;;;;0.82;0.40;;;16.00;99.90;;;;;;4964393;28;20037;-71
2023/09/13 02:25:09;;;;;;;1.75;0.50;;;16.00;99.90;;;;;;4965096;28;20034;-71
2023/09/13 02:27:34;;;;;;;1.30;0.32;;;16.00;99.90;;;;;;4943129;28;20041;-70
2023/09/13 02:30:03;;;;;;;2.28;0.30;;;16.00;99.90;;;;;;4952764;28;20042;-71
2023/09/13 02:32:29;;;;;;;0.88;0.40;;;16.00;99.90;;;;;;4959219;28;20074;-71
2023/09/13 02:34:55;;;;;;;1.77;0.55;;;15.90;99.90;;;;;;4958918;28;20085;-71
2023/09/13 02:37:20;;;;;;;1.30;0.55;;;15.90;99.90;;;;;;4955732;28;20055;-71
2023/09/13 02:39:46;;;;;;;0.95;0.38;;;15.90;99.90;;;;;;4956948;28;20030;-71
2023/09/13 02:42:11;;;;;;;4.38;0.60;;;15.80;99.90;;;;;;4967964;28;20051;-71
2023/09/13 02:44:38;;;;;;;1.00;0.47;;;15.80;99.90;;;;;;4959557;28;20026;-71
2023/09/13 02:47:03;;;;;;;0.75;0.50;;;15.70;99.90;;;;;;4960789;28;20030;-71
2023/09/13 02:49:31;;;;;;;1.45;0.55;;;15.80;99.90;;;;;;4956748;28;20041;-71
2023/09/13 02:51:57;;;;;;;2.15;0.70;;;15.70;99.90;;;;;;4960202;28;20499;-70
2023/09/13 02:54:22;;;;;;;0.98;0.50;;;15.70;99.90;;;;;;4962717;28;20022;-71
2023/09/13 02:56:49;;;;;;;1.38;0.60;;;15.70;99.90;;;;;;4966569;28;20531;-70
2023/09/13 02:59:15;;;;;;;1.58;0.55;;;15.70;99.90;;;;;;4972520;28;20038;-71
2023/09/13 03:01:42;;;;;;;1.48;0.73;;;15.70;99.90;;;;;;4958190;28;20028;-71
2023/09/13 03:04:08;;;;;;;1.77;0.60;;;15.70;99.90;;;;;;4963452;28;20050;-71
2023/09/13 03:06:34;;;;;;;1.17;0.88;;;15.70;99.90;;;;;;4965326;28;20034;-71
2023/09/13 03:08:59;;;;;;;2.83;0.55;;;15.70;99.90;;;;;;4966752;28;20061;-71
2023/09/13 03:11:25;;;;;;;2.47;0.50;;;15.70;99.90;;;;;;4965377;28;20062;-71
2023/09/13 03:13:51;;;;;;;1.95;0.47;;;15.70;99.90;;;;;;4965516;28;20034;-71
2023/09/13 03:16:19;;;;;;;1.95;0.65;;;15.70;99.90;;;;;;4964123;28;20037;-70
2023/09/13 03:18:48;;;;;;;0.68;0.43;;;15.70;99.90;;;;;;4965656;28;20031;-71
2023/09/13 03:21:13;;;;;;;2.05;0.40;;;15.70;99.90;;;;;;4964685;28;20174;-71
2023/09/13 03:23:41;;;;;;;1.35;0.50;;;15.80;99.90;;;;;;4966835;28;20725;-71
2023/09/13 03:26:19;;;;;;;0.50;0.30;;;15.80;99.90;;;;;;4967102;28;20519;-71
2023/09/13 03:28:49;;;;;;;3.20;0.60;;;15.80;99.90;;;;;;4965620;28;20034;-71
2023/09/13 03:31:17;;;;;;;0.98;0.50;;;15.80;99.90;;;;;;4969887;28;20037;-71
2023/09/13 03:33:43;;;;;;;1.45;0.70;;;15.80;99.90;;;;;;4966280;28;20030;-71
2023/09/13 03:36:10;;;;;;;0.75;0.47;;;15.90;99.90;;;;;;4965470;28;20556;-71
2023/09/13 03:38:40;;;;;;;1.77;0.60;;;15.90;99.90;;;;;;4964867;28;20561;-70
2023/09/13 03:41:07;;;;;;;1.55;0.60;;;15.90;99.90;;;;;;4965253;28;20039;-71
2023/09/13 03:43:32;;;;;;;3.28;0.60;;;15.90;99.90;;;;;;4967158;28;20031;-70
2023/09/13 03:45:59;;;;;;;2.25;0.88;;;15.90;99.90;;;;;;4965630;28;20035;-71
2023/09/13 03:48:24;;;;;;;3.08;0.73;;;15.90;99.90;;;;;;4974229;28;20034;-71
2023/09/13 03:50:50;;;;;;;2.15;0.85;;;15.80;99.90;;;;;;4968169;28;20029;-70
2023/09/13 03:53:16;;;;;;;5.15;1.00;;;15.80;99.90;;;;;;4965679;28;20047;-70
2023/09/13 03:55:43;;;;;;;0.98;0.70;;;15.80;99.90;;;;;;4966098;28;20374;-70
2023/09/13 03:58:08;;;;;;;1.77;0.73;;;15.70;99.90;;;;;;4964489;28;20524;-71
2023/09/13 04:00:37;;;;;;;2.38;0.80;;;15.70;99.90;;;;;;4963714;28;20041;-71
2023/09/13 04:03:04;;;;;;;1.85;0.70;;;15.70;99.90;;;;;;4952084;28;20046;-72
2023/09/13 04:05:30;;;;;;;2.75;0.88;;;15.70;99.90;;;;;;4958938;28;20034;-71
2023/09/13 04:07:57;;;;;;;2.85;0.90;;;15.70;99.90;;;;;;4964906;28;20366;-69
2023/09/13 04:10:23;;;;;;;1.58;0.70;;;15.70;99.90;;;;;;4965125;28;21073;-70
2023/09/13 04:12:49;;;;;;;2.38;0.77;;;15.70;99.90;;;;;;4966058;28;20038;-71
2023/09/13 04:15:16;;;;;;;4.18;0.95;;;15.70;99.90;;;;;;4959060;28;20031;-70
2023/09/13 04:17:41;;;;;;;2.33;0.80;;;15.70;99.90;;;;;;4962333;28;20089;-71
2023/09/13 04:20:08;;;;;;;3.42;0.90;;;15.70;99.90;;;;;;4961805;28;20031;-71
2023/09/13 04:22:33;;;;;;;3.03;1.10;;;15.60;99.90;;;;;;4973954;28;20149;-70
2023/09/13 04:24:59;;;;;;;2.88;0.88;;;15.60;99.90;;;;;;4971199;28;20552;-71
2023/09/13 04:27:25;;;;;;;2.28;0.93;;;15.60;99.90;;;;;;4953080;28;20039;-70
2023/09/13 04:29:52;;;;;;;2.95;1.05;;;15.60;99.90;;;;;;4957195;28;20066;-71
2023/09/13 04:32:19;;;;;;;2.65;1.08;;;15.60;99.90;;;;;;4962629;28;20051;-70
2023/09/13 04:34:46;;;;;;;3.78;1.00;;;15.60;99.90;;;;;;4960000;28;20091;-71
2023/09/13 04:37:12;;;;;;;2.20;1.00;;;15.50;99.90;;;;;;4963264;28;20413;-70
2023/09/13 04:39:38;;;;;;;3.83;1.08;;;15.50;99.90;;;;;;4968015;28;20598;-71
2023/09/13 04:42:05;;;;;;;4.72;1.30;;;15.50;99.90;;;;;;4962139;28;20121;-70
2023/09/13 04:44:31;;;;;;;4.03;1.30;;;15.50;99.90;;;;;;4963199;28;21025;-71
2023/09/13 04:46:57;;;;;;;5.22;1.05;;;15.50;99.90;;;;;;4963196;28;20051;-70
2023/09/13 04:49:24;;;;;;;3.25;1.20;;;15.50;99.90;;;;;;4963075;28;20031;-71
2023/09/13 04:51:49;;;;;;;2.63;1.10;;;15.50;99.90;;;;;;4960464;28;20053;-71
2023/09/13 04:54:15;;;;;;;3.45;1.15;;;15.50;99.90;;;;;;4964747;28;20030;-71
2023/09/13 04:56:40;;;;;;;7.35;1.42;;;15.50;99.90;;;;;;4973367;28;20104;-71
2023/09/13 04:59:06;;;;;;;2.60;1.33;;;15.50;99.90;;;;;;4967562;28;20026;-70
2023/09/13 05:01:31;;;;;;;4.97;1.17;;;15.50;99.90;;;;;;4958569;28;20043;-70
2023/09/13 05:04:00;;;;;;;8.55;1.15;;;15.50;99.90;;;;;;4961178;28;20501;-71
2023/09/13 05:06:26;;;;;;;3.78;1.50;;;15.40;99.90;;;;;;4960451;28;20635;-71
2023/09/13 05:08:52;;;;;;;5.00;1.10;;;15.50;99.90;;;;;;4962321;28;20027;-70
2023/09/13 05:11:19;;;;;;;4.78;1.17;;;15.40;99.90;;;;;;4962041;28;20045;-70
2023/09/13 05:13:47;;;;;;;2.58;1.02;;;15.40;99.90;;;;;;4971565;28;20119;-71
2023/09/13 05:16:19;;;;;;;4.07;1.17;;;15.40;99.90;;;;;;4965327;28;20030;-71
2023/09/13 05:18:46;;;;;;;5.57;1.55;;;15.50;99.90;;;;;;4962323;28;20078;-71
2023/09/13 05:21:12;;;;;;;3.17;1.27;;;15.50;99.90;;;;;;4961005;28;20035;-71
2023/09/13 05:23:38;;;;;;;2.95;0.95;;;15.50;99.90;;;;;;4962693;28;20039;-70
2023/09/13 05:26:03;;;;;;;5.30;1.30;;;15.50;99.90;;;;;;4962323;28;20033;-71
2023/09/13 05:28:33;;;;;;;3.28;1.13;;;15.50;99.90;;;;;;4960422;28;20026;-71
2023/09/13 05:31:00;;;;;;;4.30;0.98;;;15.50;99.90;;;;;;4965512;28;20083;-71
2023/09/13 05:33:26;;;;;;;2.92;1.00;;;15.50;99.90;;;;;;4962923;28;20109;-71
2023/09/13 05:35:52;;;;;;;6.90;1.38;;;15.50;99.90;;;;;;4959363;28;20564;-71
2023/09/13 05:38:17;;;;;;;4.43;0.93;;;15.50;99.90;;;;;;4961628;28;20189;-71
2023/09/13 05:40:43;;;;;;;5.32;1.30;;;15.50;99.90;;;;;;4961396;28;20100;-70
2023/09/13 05:43:09;;;;;;;2.53;1.00;;;15.50;99.90;;;;;;4964557;28;20043;-70
2023/09/13 05:45:34;;;;;;;5.35;1.10;;;15.50;99.90;;;;;;4963912;28;20038;-71
2023/09/13 05:48:00;;;;;;;6.43;1.35;;;15.50;99.90;;;;;;4976261;28;20512;-70
2023/09/13 05:50:28;;;;;;;4.45;1.00;;;15.50;99.90;;;;;;4969617;28;20042;-70
2023/09/13 05:52:54;;;;;;;6.28;1.38;;;15.50;99.90;;;;;;4947403;28;20054;-70
2023/09/13 05:55:20;;;;;;;3.60;1.00;;;15.60;99.90;;;;;;4948463;28;20191;-70
2023/09/13 05:57:52;;;;;;;4.38;1.02;;;15.60;99.90;;;;;;4964839;28;20106;-70
2023/09/13 06:00:17;;;;;;;3.67;0.90;;;15.60;99.90;;;;;;4962168;28;20133;-70
2023/09/13 06:02:43;;;;;;;5.60;1.08;;;15.60;99.90;;;;;;4961652;28;20195;-71
2023/09/13 06:05:11;;;;;;;3.92;1.33;;;15.70;99.90;;;;;;4958885;28;20049;-70
2023/09/13 06:07:37;;;;;;;2.42;0.98;;;15.70;99.90;;;;;;4961694;28;20525;-71
2023/09/13 06:10:04;;;;;;;6.50;1.23;;;15.70;99.90;;;;;;4964161;28;20053;-70
2023/09/13 06:12:31;;;;;;;3.78;1.05;;;15.70;99.90;;;;;;4957307;28;20122;-70
2023/09/13 06:14:57;;;;;;;5.80;1.20;;;15.70;99.90;;;;;;4966455;28;20475;-70
2023/09/13 06:17:23;;;;;;;3.58;0.90;;;15.70;99.90;;;;;;4973400;28;20049;-71
2023/09/13 06:19:50;;;;;;;6.03;1.27;;;15.80;99.90;;;;;;4973297;28;20019;-71
2023/09/13 06:22:17;;;;;;;4.20;1.20;;;15.80;99.90;;;;;;4961925;28;20058;-71
2023/09/13 06:24:42;;;;;;;5.30;1.10;;;15.80;99.90;;;;;;4978106;28;20030;-70
2023/09/13 06:27:08;;;;;;;3.42;1.00;;;15.90;99.90;;;;;;4961111;28;20412;-71
2023/09/13 06:29:34;;;;;;;5.07;1.55;;;15.90;99.90;;;;;;4954025;28;20026;-70
2023/09/13 06:31:59;;;;;;;3.47;1.10;;;16.00;99.90;;;;;;4959750;28;20065;-71
2023/09/13 06:34:25;;;;;;;4.38;1.10;;;16.10;99.90;;;;;;4960540;28;20039;-70
2023/09/13 06:36:50;;;;;;;5.20;0.98;;;16.10;99.90;;;;;;4964820;28;20515;-71
2023/09/13 06:39:18;;;;;;;5.28;0.80;;;16.20;99.90;;;;;;4960524;28;20775;-70
2023/09/13 06:41:44;;;;;;;5.25;0.98;;;16.10;99.90;;;;;;4964848;28;20042;-71
2023/09/13 06:44:09;;;;;;;5.63;1.27;;;16.10;99.90;;;;;;4966136;28;20022;-71
2023/09/13 06:46:36;;;;;;;6.97;1.05;;;16.10;99.90;;;;;;4964042;28;20110;-71
2023/09/13 06:49:03;;;;;;;5.05;1.30;;;16.20;99.90;;;;;;4963570;28;20042;-71
2023/09/13 06:51:29;;;;;;;3.05;0.90;;;16.20;99.90;;;;;;4961460;28;20519;-71
2023/09/13 06:53:55;;;;;;;7.93;1.10;;;16.40;99.90;;;;;;4958676;28;20122;-71
2023/09/13 06:56:20;;;;;;;5.25;1.20;;;16.50;99.90;;;;;;4961653;28;20070;-71
2023/09/13 06:58:46;;;;;;;6.25;1.15;;;16.80;99.90;;;;;;4948417;28;20113;-70
2023/09/13 07:01:12;;;;;;;4.28;1.08;;;17.00;99.90;;;;;;4964657;28;20065;-71
2023/09/13 07:03:38;;;;;;;5.30;1.00;;;17.40;99.90;;;;;;4961682;28;20054;-71
2023/09/13 07:06:04;;;;;;;6.03;1.23;;;17.80;99.90;;;;;;4962820;28;20037;-70
2023/09/13 07:08:30;;;;;;;7.05;1.30;;;18.10;99.90;;;;;;4964330;28;20038;-70
2023/09/13 07:10:56;;;;;;;5.78;1.23;;;18.30;99.90;;;;;;4953172;28;20043;-71
2023/09/13 07:13:21;;;;;;;4.57;1.10;;;18.30;99.90;;;;;;4965009;28;20094;-71
2023/09/13 07:15:48;;;;;;;3.55;1.23;;;18.20;99.90;;;;;;4964497;28;20031;-71
2023/09/13 07:18:14;;;;;;;3.40;0.85;;;18.00;99.90;;;;;;4959842;28;20056;-70
2023/09/13 07:20:40;;;;;;;4.38;0.85;;;17.90;99.90;;;;;;4956656;28;20119;-71
2023/09/13 07:23:05;;;;;;;5.45;1.10;;;17.80;99.90;;;;;;4966015;28;21079;-71
2023/09/13 07:25:31;;;;;;;5.75;1.10;;;18.00;99.90;;;;;;4965846;28;20523;-71
2023/09/13 07:27:57;;;;;;;1.98;1.00;;;18.10;99.90;;;;;;4967477;28;20064;-71
2023/09/13 07:30:23;;;;;;;5.32;1.00;;;18.20;99.90;;;;;;4949443;28;20023;-71
2023/09/13 07:32:49;;;;;;;8.18;1.40;;;18.30;99.90;;;;;;4964542;28;20399;-71
2023/09/13 07:35:15;;;;;;;4.03;1.02;;;18.40;99.90;;;;;;4960256;28;20030;-71
2023/09/13 07:37:41;;;;;;;4.93;1.20;;;18.60;99.90;;;;;;4958342;28;20041;-70
2023/09/13 07:40:07;;;;;;;3.65;0.93;;;18.80;99.90;;;;;;4957607;28;20130;-71
2023/09/13 07:42:32;;;;;;;3.72;1.00;;;19.00;99.90;;;;;;4958027;28;20034;-71
2023/09/13 07:44:59;;;;;;;4.93;1.27;;;19.40;99.90;;;;;;4957369;28;20043;-71
2023/09/13 07:47:26;;;;;;;6.35;1.10;;;19.70;99.90;;;;;;4955178;28;20393;-71
2023/09/13 07:49:52;;;;;;;6.07;1.42;;;19.80;99.90;;;;;;4958618;28;20508;-71
2023/09/13 07:52:17;;;;;;;6.57;1.10;;;19.90;99.90;;;;;;4960519;28;20038;-71
2023/09/13 07:54:43;;;;;;;3.90;0.98;;;20.40;99.90;;;;;;4954685;28;20505;-71
2023/09/13 07:57:08;;;;;;;6.38;1.10;;;21.20;99.90;;;;;;4964694;28;20043;-71
2023/09/13 07:59:34;;;;;;;6.82;1.38;;;22.70;99.90;;;;;;4968304;28;20027;-71
2023/09/13 08:02:00;;;;;;;3.20;1.05;;;24.70;99.90;;;;;;4965110;28;20022;-70
2023/09/13 08:04:25;;;;;;;4.80;1.15;;;26.90;97.20;;;;;;4959666;28;20055;-70
2023/09/13 08:06:51;;;;;;;5.32;1.30;;;28.90;90.60;;;;;;4975296;28;20029;-70
2023/09/13 08:09:16;;;;;;;6.07;1.20;;;29.90;79.20;;;;;;4972963;28;20090;-70
2023/09/13 08:11:44;;;;;;;5.72;1.20;;;29.90;73.30;;;;;;4966991;28;20517;-70
2023/09/13 08:14:10;;;;;;;6.90;1.40;;;28.90;70.50;;;;;;4982867;28;20026;-71
2023/09/13 08:16:36;;;;;;;5.93;1.25;;;27.80;76.30;;;;;;4966622;28;20397;-70
2023/09/13 08:19:02;;;;;;;6.85;1.30;;;27.20;81.60;;;;;;4946444;28;20035;-71
2023/09/13 08:21:27;;;;;;;4.93;1.20;;;26.80;81.00;;;;;;4964782;28;20037;-71
2023/09/13 08:23:53;;;;;;;4.07;1.27;;;26.10;81.40;;;;;;4965061;28;20069;-70
2023/09/13 08:26:18;;;;;;;4.10;1.17;;;27.20;82.80;;;;;;4964407;28;20158;-70
2023/09/13 08:28:44;;;;;;;4.85;1.58;;;28.30;76.60;;;;;;4963384;28;20078;-69
2023/09/13 08:31:10;;;;;;;1.70;0.90;;;30.10;69.80;;;;;;4963675;28;20027;-70
2023/09/13 08:33:36;;;;;;;5.88;1.75;;;30.40;67.50;;;;;;4964632;28;20053;-70
2023/09/13 08:36:02;;;;;;;4.00;1.38;;;29.90;65.20;;;;;;4962643;28;20057;-71
2023/09/13 08:38:28;;;;;;;6.03;1.50;;;29.60;65.40;;;;;;4963885;28;20841;-70
2023/09/13 08:40:54;;;;;;;3.92;1.35;;;29.80;67.90;;;;;;4962270;28;20035;-71
2023/09/13 08:43:21;;;;;;;5.68;1.35;;;31.00;63.10;;;;;;4268039;28;10000706;-70
2023/09/13 08:45:48;;;;;;;4.88;1.70;;;31.90;60.50;;;;;;4958666;28;20034;-71
2023/09/13 08:48:16;;;;;;;5.93;1.30;;;32.70;58.60;;;;;;4957705;28;20077;-71
2023/09/13 08:50:42;;;;;;;4.63;1.40;;;32.00;56.60;;;;;;4961806;28;20041;-71
2023/09/13 08:53:09;;;;;;;4.95;1.75;;;30.80;58.40;;;;;;4953274;28;20046;-71
2023/09/13 08:55:35;;;;;;;6.35;1.75;;;29.60;59.00;;;;;;4959113;28;20428;-71
2023/09/13 08:58:01;;;;;;;6.75;1.45;;;28.20;62.30;;;;;;4961195;28;20038;-71
2023/09/13 09:00:30;;;;;;;5.18;1.40;;;27.20;67.00;;;;;;4961265;28;20130;-71
2023/09/13 09:03:00;;;;;;;5.32;1.60;;;26.10;69.50;;;;;;4961659;28;20035;-71
2023/09/13 09:05:27;;;;;;;9.85;1.63;;;25.00;73.70;;;;;;4959871;28;20125;-70
2023/09/13 09:07:56;;;;;;;4.65;1.58;;;24.30;75.70;;;;;;4961097;28;20109;-71
2023/09/13 09:10:22;;;;;;;5.38;1.20;;;23.80;86.70;;;;;;4960801;28;20030;-71
2023/09/13 09:12:50;;;;;;;3.13;1.27;;;23.60;86.80;;;;;;4958538;28;20046;-71
2023/09/13 09:15:18;;;;;;;6.18;1.42;;;23.10;89.00;;;;;;4961745;28;20104;-70
2023/09/13 09:17:48;;;;;;;8.75;1.48;;;23.10;90.90;;;;;;4957216;28;20050;-71
2023/09/13 09:20:14;;;;;;;4.72;1.30;;;23.10;92.50;;;;;;4954423;28;20030;-69
2023/09/13 09:22:41;;;;;;;6.35;1.33;;;23.10;93.10;;;;;;4951762;28;20045;-70
2023/09/13 09:25:12;;;;;;;5.00;1.35;;;23.00;92.80;;;;;;4958152;28;20030;-71
2023/09/13 09:27:41;;;;;;;4.10;1.50;;;23.10;92.40;;;;;;4957487;28;20042;-70
2023/09/13 09:30:14;;;;;;;6.63;1.45;;;23.40;94.30;;;;;;4959514;28;20031;-70
2023/09/13 09:32:40;;;;;;;7.22;1.27;;;23.90;94.30;;;;;;4959121;28;20101;-70
2023/09/13 09:35:07;;;;;;;7.20;1.52;;;24.00;93.90;;;;;;4960050;28;20041;-70
2023/09/13 09:37:35;;;;;;;6.75;1.33;;;23.80;90.90;;;;;;4959155;28;20393;-70
2023/09/13 09:40:01;;;;;;;7.85;1.30;;;23.60;90.80;;;;;;4963462;28;20037;-70
2023/09/13 09:42:29;;;;;;;4.25;1.20;;;23.60;90.70;;;;;;4961732;28;20574;-69
2023/09/13 09:44:55;;;;;;;6.43;1.48;;;23.40;93.20;;;;;;4960244;28;20026;-70
2023/09/13 09:47:21;;;;;;;5.05;1.55;;;23.20;92.20;;;;;;4971803;28;20845;-74
2023/09/13 09:49:47;;;;;;;5.72;1.38;;;23.30;93.60;;;;;;4965995;28;20029;-73
2023/09/13 09:52:14;;;;;;;6.07;1.52;;;23.10;93.50;;;;;;4963021;28;20412;-75
2023/09/13 09:54:45;;;;;;;7.47;1.60;;;23.00;93.30;;;;;;4962935;28;20037;-74
2023/09/13 09:57:11;;;;;;;5.85;1.50;;;23.10;94.80;;;;;;4964679;28;20034;-74
2023/09/13 09:59:37;;;;;;;5.43;1.30;;;23.20;94.00;;;;;;4964030;28;20077;-74
2023/09/13 10:02:03;;;;;;;6.45;1.63;;;23.00;94.40;;;;;;4961163;28;20060;-74
2023/09/13 10:04:29;;;;;;;6.93;1.83;;;23.10;94.80;;;;;;4961008;28;20085;-74
2023/09/13 10:07:00;;;;;;;4.13;1.45;;;23.10;94.40;;;;;;4958135;28;20061;-75
2023/09/13 10:09:41;;;;;;;;;;;23.40;94.20;;;;;;4962774;28;20484;-75
2023/09/13 10:12:09;;;;;;;7.45;1.73;;;23.60;93.10;;;;;;4958665;28;19926;-75
2023/09/13 10:14:34;;;;;;;7.90;1.80;;;23.50;91.80;;;;;;4969981;28;20027;-74
2023/09/13 10:17:03;;;;;;;4.07;1.48;;;23.50;93.70;;;;;;4962543;28;20405;-74
2023/09/13 10:19:30;;;;;;;6.57;1.40;;;23.30;93.00;;;;;;4957483;28;20023;-76
2023/09/13 10:21:56;;;;;;;7.03;1.92;;;23.30;91.90;;;;;;4616169;28;10000173;-75
2023/09/13 10:24:34;;;;;;;6.70;1.40;;;23.30;93.30;;;;;;4955838;28;20345;-72
2023/09/13 10:27:08;;;;;;;8.50;1.90;;;23.40;93.10;;;;;;4955209;28;20023;-72
2023/09/13 10:29:53;;;;;;;7.72;1.70;;;23.30;92.10;;;;;;4963687;28;20027;-74
2023/09/13 10:32:20;;;;;;;5.20;1.52;;;23.50;93.60;;;;;;4972642;28;20046;-72
2023/09/13 10:34:53;;;;;;;6.60;1.38;;;23.60;93.70;;;;;;4964582;28;20049;-73
2023/09/13 10:37:41;;;;;;;7.68;1.65;;;23.60;92.60;;;;;;4960505;28;20038;-74
2023/09/13 10:40:15;;;;;;;4.15;1.45;;;23.70;91.70;;;;;;4954685;28;20022;-73
2023/09/13 10:42:42;;;;;;;5.43;1.48;;;23.70;92.90;;;;;;4959376;28;20034;-73
2023/09/13 10:45:09;;;;;;;6.70;1.58;;;23.70;93.30;;;;;;4958487;28;20085;-72
2023/09/13 10:47:37;;;;;;;5.28;1.70;;;23.70;92.10;;;;;;4959922;28;20552;-73
2023/09/13 10:50:03;;;;;;;5.68;2.08;;;23.50;93.30;;;;;;4959948;28;20684;-73
2023/09/13 10:52:31;;;;;;;5.68;1.70;;;23.20;94.10;;;;;;4962034;28;20030;-73
2023/09/13 10:55:00;;;;;;;5.88;2.10;;;23.10;92.90;;;;;;4959657;28;20409;-73
2023/09/13 10:57:26;;;;;;;5.22;1.52;;;23.20;94.30;;;;;;4963150;28;20030;-73
2023/09/13 10:59:52;;;;;;;7.32;1.85;;;23.30;92.90;;;;;;4968505;28;20530;-73
2023/09/13 11:02:21;;;;;;;4.20;1.48;;;23.20;91.60;;;;;;4957978;28;20041;-73
2023/09/13 11:04:47;;;;;;;6.38;1.67;;;23.30;90.90;;;;;;4950984;28;20091;-73
2023/09/13 11:07:16;;;;;;;7.80;1.65;;;23.40;93.00;;;;;;4957481;28;20109;-73
2023/09/13 11:09:42;;;;;;;6.60;1.70;;;23.40;91.30;;;;;;4973118;28;20030;-73
2023/09/13 11:12:14;;;;;;;4.10;1.20;;;23.40;93.30;;;;;;4957653;28;20496;-73
2023/09/13 11:14:49;;;;;;;5.88;1.50;;;23.30;91.90;;;;;;4961050;28;20046;-73
2023/09/13 11:17:38;;;;;;;6.55;1.33;;;23.50;90.80;;;;;;4960430;28;20258;-74
2023/09/13 11:20:24;;;;;;;4.43;1.38;;;23.60;91.80;;;;;;4957220;28;20587;-73
2023/09/13 11:23:09;;;;;;;5.90;1.50;;;24.00;91.60;;;;;;4963895;28;20023;-74
2023/09/13 11:25:55;;;;;;;5.53;1.40;;;24.10;91.10;;;;;;4957416;28;20041;-74
2023/09/13 11:28:29;;;;;;;7.68;2.15;;;24.30;90.40;;;;;;4961106;28;20590;-73
2023/09/13 11:31:00;;;;;;;3.65;1.35;;;24.70;90.90;;;;;;4970836;28;20093;-73
2023/09/13 11:33:27;;;;;;;5.85;1.83;;;24.70;89.00;;;;;;4965589;28;20030;-73
2023/09/13 11:35:58;;;;;;;4.90;1.55;;;25.00;90.90;;;;;;4967507;28;20036;-73
2023/09/13 11:38:27;;;;;;;5.78;1.25;;;25.20;84.40;;;;;;4619843;28;10000357;-73
2023/09/13 11:40:57;;;;;;;3.95;1.38;;;25.50;88.70;;;;;;4961101;28;20102;-72
2023/09/13 11:43:27;;;;;;;4.25;1.60;;;25.70;86.10;;;;;;4963335;28;20358;-73
2023/09/13 11:45:57;;;;;;;4.28;1.13;;;25.30;82.60;;;;;;4959724;28;20042;-73
2023/09/13 11:48:32;;;;;;;4.50;1.40;;;25.10;80.40;;;;;;4967652;28;20022;-73
2023/09/13 11:51:12;;;;;;;5.82;1.23;;;25.00;87.00;;;;;;4970468;28;20042;-73
2023/09/13 11:53:39;;;;;;;5.50;1.52;;;25.10;82.80;;;;;;4978814;28;20112;-73
2023/09/13 11:56:05;;;;;;;6.00;1.27;;;25.20;82.10;;;;;;4978471;28;20045;-73
2023/09/13 11:58:33;;;;;;;4.78;1.20;;;25.20;85.60;;;;;;4975346;28;20042;-72
2023/09/13 12:01:00;;;;;;;6.20;1.77;;;25.20;86.00;;;;;;4985113;28;20105;-73
2023/09/13 12:03:30;;;;;;;4.05;1.40;;;24.90;85.50;;;;;;4971399;28;20072;-73
2023/09/13 12:05:57;;;;;;;3.25;1.10;;;24.80;83.90;;;;;;4956978;28;20089;-73
2023/09/13 12:08:27;;;;;;;5.65;1.33;;;24.90;86.90;;;;;;4963345;28;20038;-73
2023/09/13 12:10:58;;;;;;;5.10;1.30;;;24.80;83.10;;;;;;4965296;28;20061;-73
2023/09/13 12:13:46;;;;;;;4.18;1.27;;;24.70;82.80;;;;;;4962766;28;20053;-74
2023/09/13 12:16:12;;;;;;;5.17;1.67;;;24.40;84.40;;;;;;4620176;28;10000618;-73
2023/09/13 12:18:40;;;;;;;3.78;1.20;;;24.00;86.90;;;;;;4962950;28;20093;-73
2023/09/13 12:21:07;;;;;;;5.35;1.50;;;23.70;90.50;;;;;;4961788;28;20035;-73
2023/09/13 12:23:35;;;;;;;5.63;1.40;;;23.50;90.80;;;;;;4961916;28;20023;-74
2023/09/13 12:26:02;;;;;;;9.63;1.85;;;23.30;92.40;;;;;;4959222;28;20031;-73
2023/09/13 12:28:38;;;;;;;6.95;1.85;;;23.00;90.00;;;;;;4959440;28;20026;-73
2023/09/13 12:31:06;;;;;;;4.03;1.30;;;22.70;90.70;;;;;;4957895;28;20030;-73
2023/09/13 12:33:32;;;;;;;4.85;1.67;;;22.50;91.50;;;;;;4954935;28;20504;-73
2023/09/13 12:35:59;;;;;;;4.35;1.50;;;22.40;92.80;;;;;;4963232;28;20451;-73
2023/09/13 12:38:24;;;;;;;3.38;1.38;;;22.50;94.90;;;;;;4964260;28;20038;-73
2023/09/13 12:40:56;;;;;;;5.10;1.40;;;22.70;93.70;;;;;;4963813;28;20027;-73
2023/09/13 12:43:27;;;;;;;4.03;1.52;;;22.70;93.00;;;;;;4964153;28;20035;-73
2023/09/13 12:45:53;;;;;;;;;;;22.80;92.90;;;;;;4962926;28;20027;-72
2023/09/13 12:48:19;;;;;;;5.30;1.27;;;22.80;94.80;;;;;;4958699;28;20730;-72
2023/09/13 12:50:46;;;;;;;6.25;1.85;;;22.90;93.90;;;;;;4954473;28;20038;-73